Time;durP1;ratioP1;P1;durP2;ratioP2;P2;SDS_P1;SDS_P2;PMS_P1;PMS_P2;Temp;Humidity;BMP_temperature;BMP_pressure;BME280_temperature;BME280_humidity;BME280_pressure;Samples;Min_cycle;Max_cycle;Signal;HPM_P1;HPM_P2
2023/03/19 00:00:12;;;;;;;7.77;5.10;;;;;;;8.35;100.00;100342.03;690535;28;1530;-72
2023/03/19 00:00:32;;;;;;;8.98;5.13;;;;;;;8.33;100.00;100343.78;687145;28;1339;-72
2023/03/19 00:00:53;;;;;;;10.20;5.47;;;;;;;8.33;100.00;100337.69;688632;28;853;-72
2023/03/19 00:01:16;;;;;;;8.73;5.47;;;;;;;8.31;100.00;100350.69;685708;28;1285;-72
2023/03/19 00:01:36;;;;;;;7.85;5.18;;;;;;;8.33;100.00;100343.78;691687;28;4341;-72
2023/03/19 00:01:57;;;;;;;9.05;5.60;;;;;;;8.32;100.00;100338.53;691725;28;967;-72
2023/03/19 00:02:18;;;;;;;8.68;5.45;;;;;;;8.30;100.00;100350.72;687870;28;1184;-72
2023/03/19 00:02:39;;;;;;;10.23;5.70;;;;;;;8.27;100.00;100351.56;689957;28;924;-72
2023/03/19 00:03:00;;;;;;;9.43;5.55;;;;;;;8.25;100.00;100340.31;688590;28;901;-72
2023/03/19 00:03:20;;;;;;;9.30;5.50;;;;;;;8.23;100.00;100347.22;688356;28;785;-72
2023/03/19 00:03:41;;;;;;;9.48;5.68;;;;;;;8.22;100.00;100344.63;690333;28;5294;-72
2023/03/19 00:04:02;;;;;;;9.70;5.47;;;;;;;8.20;100.00;100344.63;691034;28;1440;-73
2023/03/19 00:04:23;;;;;;;8.93;5.43;;;;;;;8.23;100.00;100343.78;692828;28;4413;-72
2023/03/19 00:04:45;;;;;;;9.30;5.32;;;;;;;8.27;100.00;100342.91;691330;28;785;-72
2023/03/19 00:05:05;;;;;;;8.45;5.13;;;;;;;8.28;100.00;100339.41;691466;28;994;-72
2023/03/19 00:05:26;;;;;;;10.00;5.57;;;;;;;8.26;100.00;100343.75;689329;28;2152;-72
2023/03/19 00:05:52;;;;;;;10.38;5.65;;;;;;;8.25;100.00;100347.22;690118;28;2106;-72
2023/03/19 00:06:12;;;;;;;9.10;5.50;;;;;;;8.24;100.00;100346.38;691377;28;1373;-71
2023/03/19 00:06:33;;;;;;;8.13;5.15;;;;;;;8.24;100.00;100348.09;690475;28;1226;-72
2023/03/19 00:06:53;;;;;;;9.23;5.22;;;;;;;8.23;100.00;100346.38;691077;28;872;-71
2023/03/19 00:07:14;;;;;;;9.10;5.13;;;;;;;8.22;100.00;100349.84;690217;28;1007;-71
2023/03/19 00:07:37;;;;;;;9.50;5.10;;;;;;;8.21;100.00;100349.00;690765;28;4428;-71
2023/03/19 00:07:58;;;;;;;7.70;5.05;;;;;;;8.21;100.00;100345.50;692295;28;1075;-72
2023/03/19 00:08:18;;;;;;;7.57;4.88;;;;;;;8.19;100.00;100351.56;698496;28;947;-72
2023/03/19 00:08:39;;;;;;;8.23;5.03;;;;;;;8.19;100.00;100348.09;699255;28;840;-71
2023/03/19 00:08:59;;;;;;;9.10;5.27;;;;;;;8.22;100.00;100352.44;698033;28;904;-71
2023/03/19 00:09:20;;;;;;;7.63;4.83;;;;;;;8.21;100.00;100353.31;697453;28;1253;-71
2023/03/19 00:09:42;;;;;;;8.02;5.10;;;;;;;8.23;100.00;100356.78;697807;28;939;-72
2023/03/19 00:10:03;;;;;;;8.65;5.10;;;;;;;8.24;100.00;100354.19;696390;28;1379;-72
2023/03/19 00:10:23;;;;;;;7.70;4.80;;;;;;;8.25;100.00;100353.31;695400;28;4509;-72
2023/03/19 00:10:43;;;;;;;7.10;4.50;;;;;;;8.25;100.00;100348.13;693326;28;904;-71
2023/03/19 00:11:06;;;;;;;7.00;4.67;;;;;;;8.27;100.00;100355.94;692670;28;1151;-72
2023/03/19 00:11:26;;;;;;;8.23;4.80;;;;;;;8.26;100.00;100347.22;695416;28;928;-72
2023/03/19 00:11:47;;;;;;;8.07;4.80;;;;;;;8.27;100.00;100356.78;690885;28;970;-71
2023/03/19 00:12:08;;;;;;;7.05;4.65;;;;;;;8.28;100.00;100357.63;696086;28;923;-72
2023/03/19 00:12:29;;;;;;;9.73;4.68;;;;;;;8.26;100.00;100347.22;692056;28;840;-72
2023/03/19 00:12:52;;;;;;;9.25;4.60;;;;;;;8.27;100.00;100348.97;693583;28;1219;-71
2023/03/19 00:13:12;;;;;;;7.63;4.50;;;;;;;8.27;100.00;100354.19;691813;28;1322;-71
2023/03/19 00:13:33;;;;;;;9.57;4.67;;;;;;;8.28;100.00;100349.81;692237;28;4487;-71
2023/03/19 00:13:53;;;;;;;9.90;4.53;;;;;;;8.28;100.00;100352.44;692220;28;951;-71
2023/03/19 00:14:14;;;;;;;7.70;4.70;;;;;;;8.28;100.00;100349.81;689559;28;1126;-71
2023/03/19 00:14:38;;;;;;;6.28;4.43;;;;;;;8.28;100.00;100355.03;687068;28;1047;-71
2023/03/19 00:14:59;;;;;;;6.97;4.70;;;;;;;8.29;100.00;100351.56;689482;28;944;-72
2023/03/19 00:15:19;;;;;;;8.32;4.80;;;;;;;8.28;100.00;100357.63;690760;28;848;-72
2023/03/19 00:15:40;;;;;;;7.27;4.53;;;;;;;8.28;100.00;100345.50;691105;28;880;-72
2023/03/19 00:16:00;;;;;;;7.80;4.53;;;;;;;8.29;100.00;100351.56;691306;28;1081;-72
2023/03/19 00:16:21;;;;;;;7.30;4.72;;;;;;;8.30;100.00;100351.56;691107;28;4498;-71
2023/03/19 00:16:41;;;;;;;7.67;4.83;;;;;;;8.30;100.00;100346.34;693327;28;1086;-71
2023/03/19 00:17:02;;;;;;;6.93;4.45;;;;;;;8.33;100.00;100346.38;694582;28;991;-71
2023/03/19 00:17:22;;;;;;;9.43;4.53;;;;;;;8.36;100.00;100353.28;695735;28;781;-72
2023/03/19 00:17:43;;;;;;;8.30;4.78;;;;;;;8.36;100.00;100348.09;695435;28;855;-72
2023/03/19 00:18:05;;;;;;;8.30;4.50;;;;;;;8.37;100.00;100343.75;697494;28;1005;-72
2023/03/19 00:18:25;;;;;;;8.30;4.47;;;;;;;8.34;100.00;100350.69;698394;28;1926;-72
2023/03/19 00:18:48;;;;;;;7.35;4.47;;;;;;;8.32;100.00;100344.63;697599;28;3998;-71
2023/03/19 00:19:09;;;;;;;7.32;4.80;;;;;;;8.33;100.00;100353.31;693794;28;1182;-72
2023/03/19 00:19:32;;;;;;;8.77;5.10;;;;;;;8.31;100.00;100347.25;693607;28;4623;-72
2023/03/19 00:19:53;;;;;;;8.82;4.88;;;;;;;8.31;100.00;100347.25;690356;28;1022;-72
2023/03/19 00:20:13;;;;;;;7.55;4.40;;;;;;;8.30;100.00;100348.09;691997;28;1244;-72
2023/03/19 00:20:34;;;;;;;7.23;4.40;;;;;;;8.29;100.00;100349.84;692551;28;918;-72
2023/03/19 00:20:54;;;;;;;6.23;4.10;;;;;;;8.31;100.00;100349.84;692682;28;809;-72
2023/03/19 00:21:18;;;;;;;6.80;4.60;;;;;;;8.31;100.00;100352.44;693518;28;1034;-72
2023/03/19 00:21:38;;;;;;;7.95;4.70;;;;;;;8.30;100.00;100353.31;696116;28;836;-71
2023/03/19 00:21:59;;;;;;;7.83;4.50;;;;;;;8.30;100.00;100350.72;697034;28;954;-72
2023/03/19 00:22:19;;;;;;;6.28;4.30;;;;;;;8.29;100.00;100352.47;694569;28;1215;-72
2023/03/19 00:22:40;;;;;;;7.35;4.40;;;;;;;8.28;100.00;100349.81;691709;28;4385;-72
2023/03/19 00:23:00;;;;;;;7.33;4.20;;;;;;;8.26;100.00;100346.38;690991;28;907;-71
2023/03/19 00:23:21;;;;;;;6.82;4.45;;;;;;;8.25;100.00;100360.25;691734;28;1108;-72
2023/03/19 00:23:42;;;;;;;7.45;4.30;;;;;;;8.23;100.00;100349.84;691918;28;1327;-72
2023/03/19 00:24:02;;;;;;;6.13;4.13;;;;;;;8.24;100.00;100358.50;692305;28;970;-72
2023/03/19 00:24:23;;;;;;;6.47;4.43;;;;;;;8.22;100.00;100355.06;694600;28;843;-72
2023/03/19 00:24:44;;;;;;;8.98;4.68;;;;;;;8.21;100.00;100350.69;699858;28;943;-72
2023/03/19 00:25:04;;;;;;;8.50;4.70;;;;;;;8.18;100.00;100355.06;695914;28;978;-72
2023/03/19 00:25:25;;;;;;;7.57;4.60;;;;;;;8.18;100.00;100351.56;697071;28;4309;-72
2023/03/19 00:25:45;;;;;;;6.78;4.55;;;;;;;8.19;100.00;100355.91;696290;28;1078;-71
2023/03/19 00:26:06;;;;;;;6.67;4.90;;;;;;;8.18;100.00;100348.97;697776;28;1046;-72
2023/03/19 00:26:28;;;;;;;7.85;5.38;;;;;;;8.18;100.00;100346.34;697370;28;899;-72
2023/03/19 00:26:48;;;;;;;8.00;5.10;;;;;;;8.17;100.00;100350.72;697726;28;821;-71
2023/03/19 00:27:09;;;;;;;8.03;4.97;;;;;;;8.17;100.00;100344.66;700429;28;898;-72
2023/03/19 00:27:29;;;;;;;9.00;5.13;;;;;;;8.16;100.00;100353.31;695043;28;1340;-71
2023/03/19 00:27:51;;;;;;;8.37;4.67;;;;;;;8.15;100.00;100349.81;691319;28;1626;-71
2023/03/19 00:28:12;;;;;;;6.90;4.38;;;;;;;8.15;100.00;100346.38;690081;28;1385;-72
2023/03/19 00:28:33;;;;;;;7.43;4.70;;;;;;;8.14;100.00;100350.72;687331;28;4315;-71
2023/03/19 00:28:57;;;;;;;7.63;4.90;;;;;;;8.13;100.00;100348.97;688419;28;1438;-71
2023/03/19 00:29:17;;;;;;;7.38;4.65;;;;;;;8.11;100.00;100340.31;688480;28;845;-71
2023/03/19 00:29:38;;;;;;;8.63;4.88;;;;;;;8.10;100.00;100346.38;692459;28;1280;-71
2023/03/19 00:29:58;;;;;;;7.43;5.30;;;;;;;8.10;100.00;100346.38;691412;28;991;-71
2023/03/19 00:30:19;;;;;;;7.68;5.03;;;;;;;8.09;100.00;100349.84;689841;28;1168;-71
2023/03/19 00:30:39;;;;;;;8.75;5.18;;;;;;;8.07;100.00;100351.59;689160;28;782;-71
2023/03/19 00:31:15;;;;;;;7.53;5.03;;;;;;;8.08;100.00;100345.50;690074;28;1265;-71
2023/03/19 00:31:35;;;;;;;7.28;4.93;;;;;;;8.07;100.00;100351.59;691001;28;5256;-72
2023/03/19 00:31:56;;;;;;;6.93;4.93;;;;;;;8.06;100.00;100344.63;689243;28;1217;-72
2023/03/19 00:32:16;;;;;;;7.20;4.65;;;;;;;8.04;100.00;100340.28;689215;28;1224;-72
2023/03/19 00:32:38;;;;;;;8.23;5.05;;;;;;;8.03;100.00;100349.84;687475;28;1481;-73
2023/03/19 00:32:58;;;;;;;9.18;5.30;;;;;;;8.01;100.00;100351.56;689623;28;1463;-72
2023/03/19 00:33:19;;;;;;;7.87;5.10;;;;;;;7.99;100.00;100350.72;688394;28;1322;-72
2023/03/19 00:33:40;;;;;;;6.82;5.10;;;;;;;7.98;100.00;100341.16;692054;28;932;-73
2023/03/19 00:34:01;;;;;;;7.97;5.10;;;;;;;7.97;100.00;100340.28;693126;28;1176;-72
2023/03/19 00:34:22;;;;;;;7.70;5.20;;;;;;;7.97;100.00;100342.88;694826;28;4476;-72
2023/03/19 00:34:42;;;;;;;7.93;5.40;;;;;;;7.98;100.00;100344.63;696908;28;1355;-73
2023/03/19 00:35:07;;;;;;;9.60;5.20;;;;;;;7.98;100.00;100338.56;700251;28;1271;-72
2023/03/19 00:35:28;;;;;;;8.50;5.03;;;;;;;7.98;100.00;100342.00;701448;28;923;-72
2023/03/19 00:35:48;;;;;;;7.73;4.70;;;;;;;7.98;100.00;100347.22;699238;28;872;-72
2023/03/19 00:36:09;;;;;;;7.47;4.82;;;;;;;7.97;100.00;100344.63;696123;28;900;-72
2023/03/19 00:36:30;;;;;;;7.93;5.10;;;;;;;7.97;100.00;100345.47;695252;28;848;-72
2023/03/19 00:36:51;;;;;;;8.25;4.97;;;;;;;7.97;100.00;100340.28;696612;28;1270;-71
2023/03/19 00:37:12;;;;;;;8.60;4.68;;;;;;;7.98;100.00;100336.81;693656;28;1252;-71
2023/03/19 00:37:36;;;;;;;8.03;5.00;;;;;;;7.99;100.00;100348.13;693816;28;4567;-71
2023/03/19 00:37:56;;;;;;;7.60;5.10;;;;;;;7.98;100.00;100344.63;693815;28;936;-72
2023/03/19 00:38:16;;;;;;;8.53;5.37;;;;;;;7.99;100.00;100342.91;689317;28;1370;-71
2023/03/19 00:38:37;;;;;;;7.70;5.30;;;;;;;7.99;100.00;100342.91;687655;28;1902;-71
2023/03/19 00:38:58;;;;;;;8.07;5.47;;;;;;;7.99;100.00;100346.38;686188;28;1407;-71
2023/03/19 00:39:20;;;;;;;8.50;5.20;;;;;;;8.01;100.00;100341.16;681565;28;1296;-72
2023/03/19 00:39:40;;;;;;;7.60;4.95;;;;;;;8.02;100.00;100342.91;684551;28;1252;-71
2023/03/19 00:40:05;;;;;;;8.30;5.10;;;;;;;8.02;100.00;100346.34;686650;28;1266;-71
2023/03/19 00:40:27;;;;;;;8.23;5.22;;;;;;;8.06;100.00;100338.53;683876;28;4450;-71
2023/03/19 00:40:47;;;;;;;10.00;5.40;;;;;;;8.06;100.00;100339.44;685831;28;822;-71
2023/03/19 00:41:09;;;;;;;7.68;5.50;;;;;;;8.07;100.00;100345.50;686832;28;1294;-71
2023/03/19 00:41:29;;;;;;;8.57;5.43;;;;;;;8.08;100.00;100347.25;685237;28;893;-71
2023/03/19 00:41:50;;;;;;;9.07;5.50;;;;;;;8.08;100.00;100350.69;688793;28;1383;-72
2023/03/19 00:42:10;;;;;;;8.83;5.30;;;;;;;8.08;100.00;100344.63;687952;28;1121;-72
2023/03/19 00:42:31;;;;;;;10.50;5.60;;;;;;;8.08;100.00;100347.25;687984;28;1649;-73
2023/03/19 00:42:51;;;;;;;8.87;5.10;;;;;;;8.08;100.00;100348.09;688195;28;781;-71
2023/03/19 00:43:12;;;;;;;7.93;5.10;;;;;;;8.08;100.00;100342.03;692799;28;963;-72
2023/03/19 00:43:32;;;;;;;7.93;5.00;;;;;;;8.09;100.00;100346.38;687855;28;5207;-71
2023/03/19 00:43:57;;;;;;;8.20;4.80;;;;;;;8.08;100.00;100350.69;692498;28;1133;-71
2023/03/19 00:44:18;;;;;;;8.32;5.20;;;;;;;8.07;100.00;100346.38;690011;28;972;-71
2023/03/19 00:44:38;;;;;;;8.25;5.10;;;;;;;8.06;100.00;100344.63;690911;28;1286;-72
2023/03/19 00:44:58;;;;;;;8.02;4.90;;;;;;;8.08;100.00;100349.84;690092;28;1014;-71
2023/03/19 00:45:19;;;;;;;8.50;5.30;;;;;;;8.09;100.00;100343.78;689708;28;1109;-71
2023/03/19 00:45:42;;;;;;;8.10;5.30;;;;;;;8.10;100.00;100341.16;691467;28;952;-72
2023/03/19 00:46:06;;;;;;;10.52;5.60;;;;;;;8.13;100.00;100345.50;691544;28;968;-72
2023/03/19 00:46:27;;;;;;;10.23;5.10;;;;;;;8.15;100.00;100343.75;693994;28;4487;-72
2023/03/19 00:46:47;;;;;;;7.90;5.15;;;;;;;8.14;100.00;100348.13;695276;28;910;-71
2023/03/19 00:47:08;;;;;;;7.07;4.87;;;;;;;8.13;100.00;100338.56;693665;28;932;-72
2023/03/19 00:47:28;;;;;;;6.88;4.82;;;;;;;8.13;100.00;100340.31;694497;28;820;-72
2023/03/19 00:47:49;;;;;;;7.30;4.90;;;;;;;8.10;100.00;100335.06;690043;28;1356;-72
2023/03/19 00:48:09;;;;;;;8.30;5.18;;;;;;;8.08;100.00;100337.69;686178;28;932;-71
2023/03/19 00:48:30;;;;;;;8.45;4.90;;;;;;;8.08;100.00;100342.88;684514;28;1239;-73
2023/03/19 00:48:54;;;;;;;7.95;5.18;;;;;;;8.05;100.00;100342.03;685704;28;1161;-72
2023/03/19 00:49:15;;;;;;;7.00;4.80;;;;;;;8.02;100.00;100340.28;689305;28;1072;-72
2023/03/19 00:49:38;;;;;;;7.13;4.60;;;;;;;8.04;100.00;100340.28;686870;28;4309;-72
2023/03/19 00:49:58;;;;;;;7.43;4.80;;;;;;;8.04;100.00;100341.16;687742;28;1549;-72
2023/03/19 00:50:19;;;;;;;8.03;5.10;;;;;;;8.03;100.00;100344.66;686090;28;1474;-72
2023/03/19 00:50:40;;;;;;;8.38;5.30;;;;;;;8.01;100.00;100354.16;684054;28;885;-72
2023/03/19 00:51:08;;;;;;;8.50;4.88;;;;;;;8.01;100.00;100343.75;688313;28;968;-72
2023/03/19 00:51:28;;;;;;;8.30;4.70;;;;;;;7.98;100.00;100347.22;682786;28;925;-72
2023/03/19 00:51:49;;;;;;;7.43;4.60;;;;;;;7.98;100.00;100344.63;685689;28;953;-72
2023/03/19 00:52:09;;;;;;;7.00;4.63;;;;;;;7.98;100.00;100346.38;686965;28;1281;-72
2023/03/19 00:52:30;;;;;;;7.17;4.70;;;;;;;7.99;100.00;100348.13;687986;28;4460;-72
2023/03/19 00:52:51;;;;;;;7.32;4.72;;;;;;;7.97;100.00;100345.47;692183;28;942;-73
2023/03/19 00:53:14;;;;;;;7.47;4.78;;;;;;;7.95;100.00;100347.22;691723;28;947;-73
2023/03/19 00:53:39;;;;;;;8.57;4.87;;;;;;;7.95;100.00;100349.81;696608;28;1230;-72
2023/03/19 00:53:59;;;;;;;7.78;5.05;;;;;;;7.94;100.00;100342.03;695509;28;1439;-72
2023/03/19 00:54:20;;;;;;;6.97;4.53;;;;;;;7.94;100.00;100345.47;694119;28;1243;-72
2023/03/19 00:54:40;;;;;;;7.03;4.83;;;;;;;7.93;100.00;100348.09;693219;28;1195;-72
2023/03/19 00:55:01;;;;;;;6.90;4.80;;;;;;;7.91;100.00;100349.84;693562;28;936;-72
2023/03/19 00:55:22;;;;;;;7.33;4.70;;;;;;;7.90;100.00;100351.56;696539;28;4294;-71
2023/03/19 00:55:42;;;;;;;8.10;4.90;;;;;;;7.89;100.00;100354.16;691547;28;1165;-73
2023/03/19 00:56:03;;;;;;;6.40;4.63;;;;;;;7.87;100.00;100346.34;691343;28;1546;-72
2023/03/19 00:56:23;;;;;;;7.20;4.90;;;;;;;7.89;100.00;100355.03;694215;28;951;-72
2023/03/19 00:56:43;;;;;;;7.43;4.95;;;;;;;7.88;100.00;100355.00;692892;28;1208;-72
2023/03/19 00:57:04;;;;;;;8.50;4.83;;;;;;;7.88;100.00;100352.41;694616;28;927;-72
2023/03/19 00:57:26;;;;;;;8.02;4.97;;;;;;;7.88;100.00;100355.00;694894;28;1304;-72
2023/03/19 00:57:46;;;;;;;7.13;5.17;;;;;;;7.86;100.00;100354.16;696568;28;1431;-72
2023/03/19 00:58:07;;;;;;;7.38;4.78;;;;;;;7.84;100.00;100352.41;694120;28;1075;-72
2023/03/19 00:58:30;;;;;;;7.75;5.00;;;;;;;7.84;100.00;100355.00;692619;28;4323;-72
2023/03/19 00:58:50;;;;;;;8.80;5.40;;;;;;;7.84;100.00;100354.16;696098;28;919;-72
2023/03/19 00:59:11;;;;;;;7.20;5.27;;;;;;;7.81;100.00;100352.41;695669;28;1209;-72
2023/03/19 00:59:34;;;;;;;7.75;5.05;;;;;;;7.80;100.00;100353.28;694787;28;947;-72
2023/03/19 00:59:56;;;;;;;8.30;5.10;;;;;;;7.80;100.00;100349.81;688609;28;1429;-72
2023/03/19 01:00:18;;;;;;;7.90;5.35;;;;;;;7.81;100.00;100360.22;686074;28;1225;-72
2023/03/19 01:00:38;;;;;;;7.78;4.90;;;;;;;7.82;100.00;100356.75;690690;28;1407;-72
2023/03/19 01:01:00;;;;;;;7.35;4.70;;;;;;;7.80;100.00;100357.63;689457;28;908;-72
2023/03/19 01:01:24;;;;;;;7.55;4.80;;;;;;;7.79;100.00;100361.94;695559;28;4319;-72
2023/03/19 01:01:44;;;;;;;8.23;5.13;;;;;;;7.80;100.00;100352.41;694559;28;1315;-71
2023/03/19 01:02:05;;;;;;;7.53;5.05;;;;;;;7.80;100.00;100360.22;694863;28;916;-71
2023/03/19 01:02:25;;;;;;;8.63;4.83;;;;;;;7.79;100.00;100356.72;695244;28;1232;-72
2023/03/19 01:02:46;;;;;;;7.45;4.95;;;;;;;7.77;100.00;100361.09;692467;28;805;-72
2023/03/19 01:03:06;;;;;;;8.90;5.27;;;;;;;7.76;100.00;100361.09;691885;28;908;-72
2023/03/19 01:03:27;;;;;;;7.93;5.03;;;;;;;7.72;100.00;100360.19;693734;28;824;-72
2023/03/19 01:03:47;;;;;;;7.75;5.00;;;;;;;7.72;100.00;100359.34;691778;28;5517;-72
2023/03/19 01:04:09;;;;;;;7.97;4.70;;;;;;;7.70;100.00;100356.75;689221;28;1340;-72
2023/03/19 01:04:30;;;;;;;8.40;5.15;;;;;;;7.67;100.00;100361.94;690630;28;4473;-72
2023/03/19 01:04:50;;;;;;;7.80;4.90;;;;;;;7.65;100.00;100353.25;690821;28;1159;-72
2023/03/19 01:05:12;;;;;;;7.50;4.70;;;;;;;7.64;100.00;100357.59;692747;28;1121;-72
2023/03/19 01:05:35;;;;;;;7.88;4.80;;;;;;;7.64;100.00;100351.50;693814;28;812;-72
2023/03/19 01:05:59;;;;;;;7.88;4.90;;;;;;;7.64;100.00;100359.31;690882;28;1257;-72
2023/03/19 01:06:19;;;;;;;8.48;4.90;;;;;;;7.61;100.00;100352.34;688859;28;1433;-72
2023/03/19 01:06:42;;;;;;;7.57;4.95;;;;;;;7.61;100.00;100346.31;688860;28;1488;-72
2023/03/19 01:07:04;;;;;;;7.18;4.95;;;;;;;7.59;100.00;100353.25;689003;28;964;-72
2023/03/19 01:07:24;;;;;;;6.97;5.00;;;;;;;7.59;100.00;100356.72;689036;28;4533;-71
2023/03/19 01:07:45;;;;;;;8.40;4.80;;;;;;;7.58;100.00;100347.16;691160;28;844;-72
2023/03/19 01:08:06;;;;;;;7.82;4.85;;;;;;;7.58;100.00;100351.50;690593;28;996;-71
2023/03/19 01:08:26;;;;;;;7.47;4.83;;;;;;;7.59;100.00;100353.25;691851;28;1422;-72
2023/03/19 01:08:46;;;;;;;7.20;4.85;;;;;;;7.59;100.00;100353.25;694509;28;1183;-72
2023/03/19 01:09:08;;;;;;;8.10;5.07;;;;;;;7.57;100.00;100349.75;694291;28;964;-72
2023/03/19 01:09:29;;;;;;;7.25;4.80;;;;;;;7.55;100.00;100346.31;691916;28;1353;-72
2023/03/19 01:09:50;;;;;;;8.32;4.90;;;;;;;7.56;100.00;100348.00;692165;28;1175;-71
2023/03/19 01:10:16;;;;;;;8.43;4.55;;;;;;;7.56;100.00;100350.63;694594;28;919;-71
2023/03/19 01:10:36;;;;;;;7.10;4.90;;;;;;;7.54;100.00;100350.63;692749;28;4285;-71
2023/03/19 01:11:11;;;;;;;9.50;5.22;;;;;;;7.53;100.00;100348.00;689628;28;1512;-71
2023/03/19 01:11:31;;;;;;;7.60;4.70;;;;;;;7.53;100.00;100350.63;686933;28;1303;-71
2023/03/19 01:11:51;;;;;;;6.77;4.70;;;;;;;7.50;100.00;100349.75;690162;28;1162;-72
2023/03/19 01:12:12;;;;;;;8.60;4.97;;;;;;;7.49;100.00;100349.72;690463;28;1283;-72
2023/03/19 01:12:33;;;;;;;9.00;5.03;;;;;;;7.47;100.00;100341.91;696832;28;1376;-72
2023/03/19 01:12:54;;;;;;;7.88;5.05;;;;;;;7.47;100.00;100347.13;690994;28;1061;-72
2023/03/19 01:13:14;;;;;;;8.07;5.07;;;;;;;7.47;100.00;100347.13;687713;28;1235;-72
2023/03/19 01:13:35;;;;;;;8.23;4.63;;;;;;;7.47;100.00;100341.91;688734;28;4378;-72
2023/03/19 01:13:55;;;;;;;7.73;4.40;;;;;;;7.46;100.00;100350.63;689020;28;1127;-72
2023/03/19 01:14:16;;;;;;;6.80;4.80;;;;;;;7.46;100.00;100342.81;689843;28;1225;-72
2023/03/19 01:14:37;;;;;;;7.03;4.78;;;;;;;7.44;100.00;100349.72;694399;28;861;-72
2023/03/19 01:14:58;;;;;;;7.73;4.73;;;;;;;7.42;100.00;100346.25;695726;28;3501;-72
2023/03/19 01:15:18;;;;;;;7.20;4.50;;;;;;;7.41;100.00;100347.13;690944;28;1266;-72
2023/03/19 01:15:41;;;;;;;7.70;4.60;;;;;;;7.40;100.00;100353.19;693522;28;889;-72
2023/03/19 01:16:02;;;;;;;8.20;4.80;;;;;;;7.39;100.00;100351.44;688627;28;1249;-72
2023/03/19 01:16:22;;;;;;;7.17;4.73;;;;;;;7.40;100.00;100345.38;686790;28;4351;-71
2023/03/19 01:16:44;;;;;;;6.47;4.40;;;;;;;7.41;100.00;100349.72;686118;28;1488;-71
2023/03/19 01:17:05;;;;;;;6.95;4.35;;;;;;;7.39;100.00;100350.56;687047;28;1459;-71
2023/03/19 01:17:26;;;;;;;7.63;4.50;;;;;;;7.37;100.00;100350.56;689645;28;1438;-71
2023/03/19 01:17:46;;;;;;;7.45;4.40;;;;;;;7.38;100.00;100352.31;690993;28;1188;-71
2023/03/19 01:18:10;;;;;;;8.20;4.60;;;;;;;7.38;100.00;100343.63;686678;28;1014;-71
2023/03/19 01:18:31;;;;;;;7.28;4.68;;;;;;;7.34;100.00;100347.97;689044;28;1906;-71
2023/03/19 01:18:52;;;;;;;6.67;4.33;;;;;;;7.35;100.00;100344.47;688125;28;1426;-71
2023/03/19 01:19:13;;;;;;;6.28;4.15;;;;;;;7.33;100.00;100348.81;691646;28;1656;-71
2023/03/19 01:19:36;;;;;;;7.25;4.50;;;;;;;7.32;100.00;100350.56;691925;28;4288;-72
2023/03/19 01:19:57;;;;;;;7.50;4.40;;;;;;;7.35;100.00;100346.22;692449;28;1181;-71
2023/03/19 01:20:17;;;;;;;6.33;4.50;;;;;;;7.33;100.00;100344.47;695877;28;750;-72
2023/03/19 01:20:41;;;;;;;8.68;4.80;;;;;;;7.33;100.00;100347.09;698531;28;1399;-72
2023/03/19 01:21:02;;;;;;;6.80;4.60;;;;;;;7.31;100.00;100343.63;694391;28;1548;-71
2023/03/19 01:21:23;;;;;;;6.63;4.30;;;;;;;7.30;100.00;100352.28;694707;28;1268;-71
2023/03/19 01:21:45;;;;;;;7.60;4.65;;;;;;;7.30;100.00;100348.81;694847;28;1201;-71
2023/03/19 01:22:08;;;;;;;7.03;4.47;;;;;;;7.29;100.00;100347.06;694297;28;1241;-71
2023/03/19 01:22:29;;;;;;;6.50;4.43;;;;;;;7.29;100.00;100344.47;691984;28;4285;-71
2023/03/19 01:22:52;;;;;;;6.72;4.18;;;;;;;7.29;100.00;100349.69;691725;28;1445;-72
2023/03/19 01:23:16;;;;;;;7.07;4.30;;;;;;;7.26;100.00;100342.72;692899;28;1223;-71
2023/03/19 01:23:37;;;;;;;6.13;4.20;;;;;;;7.24;100.00;100348.78;693576;28;821;-71
2023/03/19 01:23:59;;;;;;;6.90;4.30;;;;;;;7.22;100.00;100345.31;695900;28;1133;-71
2023/03/19 01:24:21;;;;;;;7.65;4.40;;;;;;;7.23;100.00;100354.88;693716;28;1402;-71
2023/03/19 01:24:46;;;;;;;6.97;4.50;;;;;;;7.20;100.00;100349.63;694542;28;1412;-72
2023/03/19 01:25:11;;;;;;;6.95;4.53;;;;;;;7.16;100.00;100347.03;697784;28;1215;-72
2023/03/19 01:25:34;;;;;;;7.22;4.57;;;;;;;7.14;100.00;100348.78;691358;28;4286;-72
2023/03/19 01:25:56;;;;;;;6.70;4.57;;;;;;;7.14;100.00;100346.16;691322;28;1074;-72
2023/03/19 01:26:18;;;;;;;7.85;4.70;;;;;;;7.12;100.00;100347.88;690686;28;1491;-72
2023/03/19 01:26:39;;;;;;;8.23;4.45;;;;;;;7.13;100.00;100351.34;687917;28;1713;-72
2023/03/19 01:27:11;;;;;;;6.90;4.63;;;;;;;7.11;100.00;100351.31;689023;28;1176;-72
2023/03/19 01:27:31;;;;;;;8.33;4.43;;;;;;;7.09;100.00;100355.66;686488;28;1153;-72
2023/03/19 01:27:52;;;;;;;7.80;4.40;;;;;;;7.09;100.00;100347.88;694077;28;1247;-72
2023/03/19 01:28:14;;;;;;;7.07;4.50;;;;;;;7.09;100.00;100352.19;693835;28;1263;-72
2023/03/19 01:28:35;;;;;;;7.25;4.63;;;;;;;7.08;100.00;100359.13;693584;28;4634;-72
2023/03/19 01:29:00;;;;;;;7.35;4.75;;;;;;;7.07;100.00;100357.38;695293;28;959;-72
2023/03/19 01:29:23;;;;;;;6.60;4.18;;;;;;;7.08;100.00;100351.31;692297;28;1329;-73
2023/03/19 01:29:44;;;;;;;6.50;4.30;;;;;;;7.09;100.00;100346.97;688549;28;1366;-72
2023/03/19 01:30:10;;;;;;;7.38;4.30;;;;;;;7.06;100.00;100347.88;695299;28;1283;-72
2023/03/19 01:30:50;;;;;;;6.47;4.55;;;;;;;7.00;100.00;100342.63;688277;28;699;-72
2023/03/19 01:31:30;;;;;;;7.53;4.88;;;;;;;6.95;100.00;100345.22;690004;28;4522;-72
2023/03/19 01:32:09;;;;;;;7.72;4.68;;;;;;;6.95;100.00;100347.81;698748;28;883;-72
2023/03/19 01:32:57;;;;;;;7.35;4.80;;;;;;;6.91;100.00;100343.44;698724;28;1383;-72
2023/03/19 01:33:28;;;;;;;6.90;4.70;;;;;;;6.92;100.00;100349.50;694382;28;1562;-72
2023/03/19 01:34:12;;;;;;;8.60;4.60;;;;;;;6.91;100.00;100342.56;693492;28;1277;-72
2023/03/19 01:34:38;;;;;;;7.00;4.60;;;;;;;6.88;100.00;100352.94;689700;28;4281;-72
2023/03/19 01:35:02;;;;;;;7.75;4.72;;;;;;;6.86;100.00;100344.28;690321;28;1486;-72
2023/03/19 01:35:23;;;;;;;9.10;4.97;;;;;;;6.87;100.00;100346.91;689344;28;1180;-72
2023/03/19 01:35:46;;;;;;;8.37;4.50;;;;;;;6.87;100.00;100351.19;687069;28;1209;-72
2023/03/19 01:36:08;;;;;;;7.63;4.70;;;;;;;6.88;100.00;100345.16;685385;28;1322;-72
2023/03/19 01:36:51;;;;;;;7.28;4.60;;;;;;;6.85;100.00;100348.59;684930;28;1189;-72
2023/03/19 01:37:18;;;;;;;6.15;4.53;;;;;;;6.80;100.00;100340.78;689434;28;1008;-72
2023/03/19 01:37:39;;;;;;;7.25;4.80;;;;;;;6.78;100.00;100346.84;685246;28;4362;-72
2023/03/19 01:38:00;;;;;;;7.10;4.43;;;;;;;6.79;100.00;100345.97;689837;28;1276;-72
2023/03/19 01:38:21;;;;;;;7.18;4.85;;;;;;;6.76;100.00;100352.03;687766;28;1493;-72
2023/03/19 01:38:45;;;;;;;8.02;4.80;;;;;;;6.76;100.00;100348.56;692117;28;1613;-72
2023/03/19 01:39:09;;;;;;;8.15;4.55;;;;;;;6.76;100.00;100345.97;695125;28;1358;-72
2023/03/19 01:39:30;;;;;;;7.68;4.30;;;;;;;6.77;100.00;100343.38;697474;28;1349;-72
2023/03/19 01:39:51;;;;;;;7.28;4.50;;;;;;;6.78;100.00;100349.44;694207;28;1327;-71
2023/03/19 01:40:13;;;;;;;7.05;4.45;;;;;;;6.78;100.00;100346.84;694344;28;1164;-73
2023/03/19 01:40:34;;;;;;;7.53;4.50;;;;;;;6.79;100.00;100348.59;693583;28;4469;-73
2023/03/19 01:40:55;;;;;;;7.67;4.47;;;;;;;6.78;100.00;100347.72;694657;28;836;-72
2023/03/19 01:41:19;;;;;;;8.60;4.22;;;;;;;6.76;100.00;100346.84;695010;28;1287;-71
2023/03/19 01:41:41;;;;;;;7.05;4.43;;;;;;;6.77;100.00;100345.09;691387;28;1136;-71
2023/03/19 01:42:24;;;;;;;6.82;4.35;;;;;;;6.80;100.00;100350.31;683189;28;1184;-71
2023/03/19 01:43:21;;;;;;;7.82;4.25;;;;;;;6.80;100.00;100351.19;687686;28;1158;-72
2023/03/19 01:43:50;;;;;;;8.00;4.75;;;;;;;6.78;100.00;100347.72;685889;28;4875;-72
2023/03/19 01:44:39;;;;;;;7.20;4.60;;;;;;;6.74;100.00;100339.88;690414;28;1426;-71
2023/03/19 01:45:30;;;;;;;7.57;4.50;;;;;;;6.73;100.00;100345.94;690404;28;1369;-72
2023/03/19 01:46:26;;;;;;;6.75;4.32;;;;;;;6.72;100.00;100344.22;692698;28;1081;-72
2023/03/19 01:47:28;;;;;;;7.57;4.70;;;;;;;6.68;100.00;100343.31;695846;28;4906;-72
2023/03/19 01:48:05;;;;;;;7.90;4.40;;;;;;;6.66;100.00;100345.06;695137;28;1046;-72
2023/03/19 01:48:46;;;;;;;9.18;4.63;;;;;;;6.68;100.00;100345.91;697308;28;1464;-72